sensor_id;sensor_type;location;lat;lon;timestamp;P1;durP1;ratioP1;P2;durP2;ratioP2
20725;SDS011;10524;48.132;8.518;2023-02-01T00:01:45;3.78;;;2.85;;
20725;SDS011;10524;48.132;8.518;2023-02-01T00:04:11;3.50;;;2.50;;
20725;SDS011;10524;48.132;8.518;2023-02-01T00:06:37;4.25;;;2.47;;
20725;SDS011;10524;48.132;8.518;2023-02-01T00:09:03;3.35;;;2.45;;
20725;SDS011;10524;48.132;8.518;2023-02-01T00:11:29;2.97;;;2.50;;
20725;SDS011;10524;48.132;8.518;2023-02-01T00:13:54;4.20;;;2.42;;
20725;SDS011;10524;48.132;8.518;2023-02-01T00:16:22;4.15;;;2.42;;
20725;SDS011;10524;48.132;8.518;2023-02-01T00:18:50;3.15;;;2.53;;
20725;SDS011;10524;48.132;8.518;2023-02-01T00:21:18;3.97;;;2.80;;
20725;SDS011;10524;48.132;8.518;2023-02-01T00:23:45;2.60;;;2.40;;
20725;SDS011;10524;48.132;8.518;2023-02-01T00:26:33;2.97;;;2.40;;
20725;SDS011;10524;48.132;8.518;2023-02-01T00:29:02;3.63;;;2.60;;
20725;SDS011;10524;48.132;8.518;2023-02-01T00:31:28;3.80;;;2.88;;
20725;SDS011;10524;48.132;8.518;2023-02-01T00:33:54;3.47;;;2.80;;
20725;SDS011;10524;48.132;8.518;2023-02-01T00:36:20;3.50;;;2.70;;
20725;SDS011;10524;48.132;8.518;2023-02-01T00:38:45;3.60;;;2.63;;
20725;SDS011;10524;48.132;8.518;2023-02-01T00:41:12;3.33;;;2.80;;
20725;SDS011;10524;48.132;8.518;2023-02-01T00:43:40;3.70;;;2.60;;
20725;SDS011;10524;48.132;8.518;2023-02-01T00:46:06;3.00;;;2.45;;
20725;SDS011;10524;48.132;8.518;2023-02-01T00:48:32;3.40;;;2.47;;
20725;SDS011;10524;48.132;8.518;2023-02-01T00:51:02;3.13;;;2.47;;
20725;SDS011;10524;48.132;8.518;2023-02-01T00:53:29;4.18;;;2.65;;
20725;SDS011;10524;48.132;8.518;2023-02-01T00:55:55;4.22;;;2.60;;
20725;SDS011;10524;48.132;8.518;2023-02-01T00:58:21;3.58;;;2.63;;
20725;SDS011;10524;48.132;8.518;2023-02-01T01:00:54;4.05;;;2.80;;
20725;SDS011;10524;48.132;8.518;2023-02-01T01:03:49;3.58;;;2.85;;
20725;SDS011;10524;48.132;8.518;2023-02-01T01:06:17;4.15;;;2.80;;
20725;SDS011;10524;48.132;8.518;2023-02-01T01:08:45;3.47;;;2.85;;
20725;SDS011;10524;48.132;8.518;2023-02-01T01:11:13;3.83;;;2.47;;
20725;SDS011;10524;48.132;8.518;2023-02-01T01:13:41;3.30;;;2.70;;
20725;SDS011;10524;48.132;8.518;2023-02-01T01:16:08;4.88;;;3.45;;
20725;SDS011;10524;48.132;8.518;2023-02-01T01:18:35;3.67;;;2.88;;
20725;SDS011;10524;48.132;8.518;2023-02-01T01:21:01;3.78;;;3.08;;
20725;SDS011;10524;48.132;8.518;2023-02-01T01:23:28;4.00;;;3.10;;
20725;SDS011;10524;48.132;8.518;2023-02-01T01:25:54;4.20;;;3.00;;
20725;SDS011;10524;48.132;8.518;2023-02-01T01:28:20;4.65;;;3.17;;
20725;SDS011;10524;48.132;8.518;2023-02-01T01:30:46;3.70;;;3.10;;
20725;SDS011;10524;48.132;8.518;2023-02-01T01:33:11;3.08;;;2.72;;
20725;SDS011;10524;48.132;8.518;2023-02-01T01:35:37;5.35;;;3.05;;
20725;SDS011;10524;48.132;8.518;2023-02-01T01:38:03;2.63;;;2.38;;
20725;SDS011;10524;48.132;8.518;2023-02-01T01:40:28;2.97;;;2.60;;
20725;SDS011;10524;48.132;8.518;2023-02-01T01:42:55;3.55;;;2.40;;
20725;SDS011;10524;48.132;8.518;2023-02-01T01:47:51;3.92;;;2.60;;
20725;SDS011;10524;48.132;8.518;2023-02-01T01:50:21;2.92;;;2.40;;
20725;SDS011;10524;48.132;8.518;2023-02-01T01:52:53;4.03;;;2.72;;
20725;SDS011;10524;48.132;8.518;2023-02-01T01:55:20;3.40;;;2.80;;
20725;SDS011;10524;48.132;8.518;2023-02-01T01:58:05;3.17;;;2.55;;
20725;SDS011;10524;48.132;8.518;2023-02-01T02:00:33;4.85;;;3.22;;
20725;SDS011;10524;48.132;8.518;2023-02-01T02:03:22;4.90;;;3.17;;
20725;SDS011;10524;48.132;8.518;2023-02-01T02:05:52;4.35;;;2.90;;
20725;SDS011;10524;48.132;8.518;2023-02-01T02:08:20;3.92;;;3.00;;
20725;SDS011;10524;48.132;8.518;2023-02-01T02:10:48;3.70;;;3.15;;
20725;SDS011;10524;48.132;8.518;2023-02-01T02:13:24;4.45;;;3.15;;
20725;SDS011;10524;48.132;8.518;2023-02-01T02:32:54;5.85;;;3.60;;
20725;SDS011;10524;48.132;8.518;2023-02-01T02:35:46;5.70;;;3.67;;
20725;SDS011;10524;48.132;8.518;2023-02-01T02:38:31;4.25;;;3.53;;
20725;SDS011;10524;48.132;8.518;2023-02-01T02:44:40;4.28;;;3.35;;
20725;SDS011;10524;48.132;8.518;2023-02-01T02:47:39;5.87;;;4.03;;
20725;SDS011;10524;48.132;8.518;2023-02-01T02:50:20;4.95;;;3.90;;
20725;SDS011;10524;48.132;8.518;2023-02-01T02:53:28;4.57;;;3.28;;
20725;SDS011;10524;48.132;8.518;2023-02-01T02:56:19;4.82;;;3.72;;
20725;SDS011;10524;48.132;8.518;2023-02-01T02:59:07;4.15;;;3.30;;
20725;SDS011;10524;48.132;8.518;2023-02-01T03:01:53;5.45;;;3.30;;
20725;SDS011;10524;48.132;8.518;2023-02-01T03:04:38;6.38;;;3.60;;
20725;SDS011;10524;48.132;8.518;2023-02-01T03:07:46;5.20;;;3.83;;
20725;SDS011;10524;48.132;8.518;2023-02-01T03:10:10;6.45;;;3.80;;
20725;SDS011;10524;48.132;8.518;2023-02-01T03:12:45;5.68;;;3.60;;
20725;SDS011;10524;48.132;8.518;2023-02-01T03:15:23;5.65;;;3.83;;
20725;SDS011;10524;48.132;8.518;2023-02-01T03:21:14;6.05;;;3.78;;
20725;SDS011;10524;48.132;8.518;2023-02-01T03:23:45;5.15;;;3.28;;
20725;SDS011;10524;48.132;8.518;2023-02-01T03:26:14;6.78;;;4.00;;
20725;SDS011;10524;48.132;8.518;2023-02-01T03:28:43;5.97;;;3.50;;
20725;SDS011;10524;48.132;8.518;2023-02-01T03:31:14;4.60;;;3.40;;
20725;SDS011;10524;48.132;8.518;2023-02-01T03:33:41;5.93;;;3.78;;
20725;SDS011;10524;48.132;8.518;2023-02-01T03:36:13;5.13;;;3.40;;
20725;SDS011;10524;48.132;8.518;2023-02-01T03:46:20;4.78;;;3.42;;
20725;SDS011;10524;48.132;8.518;2023-02-01T03:49:25;4.78;;;3.10;;
20725;SDS011;10524;48.132;8.518;2023-02-01T03:51:58;5.53;;;3.22;;
20725;SDS011;10524;48.132;8.518;2023-02-01T03:54:25;4.68;;;3.28;;
20725;SDS011;10524;48.132;8.518;2023-02-01T03:56:53;5.70;;;3.20;;
20725;SDS011;10524;48.132;8.518;2023-02-01T03:59:22;3.90;;;2.85;;
20725;SDS011;10524;48.132;8.518;2023-02-01T04:01:49;4.90;;;2.85;;
20725;SDS011;10524;48.132;8.518;2023-02-01T04:04:14;3.85;;;3.05;;
20725;SDS011;10524;48.132;8.518;2023-02-01T04:06:47;3.60;;;2.75;;
20725;SDS011;10524;48.132;8.518;2023-02-01T04:09:13;4.38;;;2.97;;
20725;SDS011;10524;48.132;8.518;2023-02-01T04:11:38;3.75;;;2.70;;
20725;SDS011;10524;48.132;8.518;2023-02-01T04:14:04;4.25;;;3.05;;
20725;SDS011;10524;48.132;8.518;2023-02-01T04:16:33;4.32;;;2.72;;
20725;SDS011;10524;48.132;8.518;2023-02-01T04:18:59;4.28;;;3.00;;
20725;SDS011;10524;48.132;8.518;2023-02-01T04:21:25;4.38;;;3.00;;
20725;SDS011;10524;48.132;8.518;2023-02-01T04:23:51;4.80;;;3.05;;
20725;SDS011;10524;48.132;8.518;2023-02-01T04:26:17;3.60;;;2.55;;
20725;SDS011;10524;48.132;8.518;2023-02-01T04:28:44;4.00;;;3.05;;
20725;SDS011;10524;48.132;8.518;2023-02-01T04:31:12;4.00;;;2.90;;
20725;SDS011;10524;48.132;8.518;2023-02-01T04:33:42;3.20;;;2.33;;
20725;SDS011;10524;48.132;8.518;2023-02-01T04:36:08;3.63;;;2.78;;
20725;SDS011;10524;48.132;8.518;2023-02-01T04:38:34;2.95;;;2.20;;
20725;SDS011;10524;48.132;8.518;2023-02-01T04:41:00;3.10;;;2.20;;
20725;SDS011;10524;48.132;8.518;2023-02-01T04:43:25;4.05;;;2.30;;
20725;SDS011;10524;48.132;8.518;2023-02-01T04:45:51;2.60;;;2.33;;
20725;SDS011;10524;48.132;8.518;2023-02-01T04:48:19;4.05;;;2.53;;
20725;SDS011;10524;48.132;8.518;2023-02-01T04:50:45;2.75;;;2.22;;
20725;SDS011;10524;48.132;8.518;2023-02-01T04:53:13;2.88;;;2.10;;
20725;SDS011;10524;48.132;8.518;2023-02-01T04:55:40;2.83;;;2.20;;
20725;SDS011;10524;48.132;8.518;2023-02-01T04:58:06;2.47;;;2.00;;
20725;SDS011;10524;48.132;8.518;2023-02-01T05:00:32;2.63;;;1.98;;
20725;SDS011;10524;48.132;8.518;2023-02-01T05:02:58;2.08;;;1.83;;
20725;SDS011;10524;48.132;8.518;2023-02-01T05:05:24;2.17;;;1.85;;
20725;SDS011;10524;48.132;8.518;2023-02-01T05:07:50;4.47;;;2.25;;
20725;SDS011;10524;48.132;8.518;2023-02-01T05:10:16;2.40;;;2.03;;
20725;SDS011;10524;48.132;8.518;2023-02-01T05:12:42;2.30;;;1.80;;
20725;SDS011;10524;48.132;8.518;2023-02-01T05:15:28;3.22;;;1.70;;
20725;SDS011;10524;48.132;8.518;2023-02-01T05:17:53;2.85;;;2.00;;
20725;SDS011;10524;48.132;8.518;2023-02-01T05:20:19;2.95;;;1.90;;
20725;SDS011;10524;48.132;8.518;2023-02-01T05:22:46;3.08;;;1.90;;
20725;SDS011;10524;48.132;8.518;2023-02-01T05:25:12;3.15;;;2.20;;
20725;SDS011;10524;48.132;8.518;2023-02-01T05:27:37;3.10;;;2.17;;
20725;SDS011;10524;48.132;8.518;2023-02-01T05:30:04;1.90;;;1.70;;
20725;SDS011;10524;48.132;8.518;2023-02-01T05:32:30;2.70;;;1.88;;
20725;SDS011;10524;48.132;8.518;2023-02-01T05:34:56;2.50;;;1.90;;
20725;SDS011;10524;48.132;8.518;2023-02-01T05:37:21;3.25;;;1.90;;
20725;SDS011;10524;48.132;8.518;2023-02-01T05:39:47;2.53;;;1.90;;
20725;SDS011;10524;48.132;8.518;2023-02-01T05:42:13;3.50;;;1.95;;
20725;SDS011;10524;48.132;8.518;2023-02-01T05:44:39;2.47;;;2.00;;
20725;SDS011;10524;48.132;8.518;2023-02-01T05:47:05;2.20;;;1.77;;
20725;SDS011;10524;48.132;8.518;2023-02-01T05:49:30;1.83;;;1.60;;
20725;SDS011;10524;48.132;8.518;2023-02-01T05:51:56;2.55;;;2.05;;
20725;SDS011;10524;48.132;8.518;2023-02-01T05:54:21;4.15;;;2.40;;
20725;SDS011;10524;48.132;8.518;2023-02-01T05:56:47;3.58;;;2.50;;
20725;SDS011;10524;48.132;8.518;2023-02-01T05:59:12;2.97;;;2.28;;
20725;SDS011;10524;48.132;8.518;2023-02-01T06:01:38;2.90;;;2.05;;
20725;SDS011;10524;48.132;8.518;2023-02-01T06:04:04;2.75;;;2.08;;
20725;SDS011;10524;48.132;8.518;2023-02-01T06:06:29;2.40;;;1.60;;
20725;SDS011;10524;48.132;8.518;2023-02-01T06:08:55;3.70;;;1.85;;
20725;SDS011;10524;48.132;8.518;2023-02-01T06:11:21;2.72;;;1.95;;
20725;SDS011;10524;48.132;8.518;2023-02-01T06:13:46;3.08;;;2.17;;
20725;SDS011;10524;48.132;8.518;2023-02-01T06:16:12;2.65;;;2.20;;
20725;SDS011;10524;48.132;8.518;2023-02-01T06:18:40;2.80;;;2.22;;
20725;SDS011;10524;48.132;8.518;2023-02-01T06:21:06;2.90;;;2.20;;
20725;SDS011;10524;48.132;8.518;2023-02-01T06:23:32;3.67;;;2.30;;
20725;SDS011;10524;48.132;8.518;2023-02-01T06:26:02;3.78;;;2.47;;
20725;SDS011;10524;48.132;8.518;2023-02-01T06:28:30;2.40;;;1.90;;
20725;SDS011;10524;48.132;8.518;2023-02-01T06:30:58;3.20;;;2.10;;
20725;SDS011;10524;48.132;8.518;2023-02-01T06:33:27;3.28;;;2.20;;
20725;SDS011;10524;48.132;8.518;2023-02-01T06:35:57;2.40;;;1.80;;
20725;SDS011;10524;48.132;8.518;2023-02-01T06:38:24;2.63;;;1.92;;
20725;SDS011;10524;48.132;8.518;2023-02-01T06:40:54;2.33;;;1.75;;
20725;SDS011;10524;48.132;8.518;2023-02-01T06:43:24;2.53;;;2.10;;
20725;SDS011;10524;48.132;8.518;2023-02-01T06:45:50;3.00;;;1.85;;
20725;SDS011;10524;48.132;8.518;2023-02-01T06:48:17;4.53;;;2.10;;
20725;SDS011;10524;48.132;8.518;2023-02-01T06:50:43;3.63;;;2.20;;
20725;SDS011;10524;48.132;8.518;2023-02-01T06:53:09;3.67;;;1.73;;
20725;SDS011;10524;48.132;8.518;2023-02-01T06:55:34;2.33;;;1.88;;
20725;SDS011;10524;48.132;8.518;2023-02-01T06:58:00;2.53;;;2.20;;
20725;SDS011;10524;48.132;8.518;2023-02-01T07:00:27;4.22;;;2.60;;
20725;SDS011;10524;48.132;8.518;2023-02-01T07:02:53;2.75;;;2.33;;
20725;SDS011;10524;48.132;8.518;2023-02-01T07:05:20;2.70;;;2.30;;
20725;SDS011;10524;48.132;8.518;2023-02-01T07:07:46;2.78;;;2.40;;
20725;SDS011;10524;48.132;8.518;2023-02-01T07:10:12;3.22;;;2.33;;
20725;SDS011;10524;48.132;8.518;2023-02-01T07:12:37;3.20;;;2.35;;
20725;SDS011;10524;48.132;8.518;2023-02-01T07:15:03;2.83;;;1.90;;
20725;SDS011;10524;48.132;8.518;2023-02-01T07:17:30;2.75;;;2.00;;
20725;SDS011;10524;48.132;8.518;2023-02-01T07:19:56;2.95;;;1.80;;
20725;SDS011;10524;48.132;8.518;2023-02-01T07:22:23;4.03;;;2.00;;
20725;SDS011;10524;48.132;8.518;2023-02-01T07:24:49;2.30;;;1.60;;
20725;SDS011;10524;48.132;8.518;2023-02-01T07:27:14;2.17;;;1.60;;
20725;SDS011;10524;48.132;8.518;2023-02-01T07:29:40;1.83;;;1.55;;
20725;SDS011;10524;48.132;8.518;2023-02-01T07:32:05;2.22;;;1.70;;
20725;SDS011;10524;48.132;8.518;2023-02-01T07:34:31;2.20;;;1.60;;
20725;SDS011;10524;48.132;8.518;2023-02-01T07:36:57;1.83;;;1.50;;
20725;SDS011;10524;48.132;8.518;2023-02-01T07:39:23;2.10;;;1.50;;
20725;SDS011;10524;48.132;8.518;2023-02-01T07:41:49;3.85;;;1.90;;
20725;SDS011;10524;48.132;8.518;2023-02-01T07:44:14;1.58;;;1.30;;
20725;SDS011;10524;48.132;8.518;2023-02-01T07:46:41;2.13;;;1.60;;
20725;SDS011;10524;48.132;8.518;2023-02-01T07:49:08;2.00;;;1.50;;
20725;SDS011;10524;48.132;8.518;2023-02-01T07:51:34;1.70;;;1.60;;
20725;SDS011;10524;48.132;8.518;2023-02-01T07:53:59;2.80;;;1.60;;
20725;SDS011;10524;48.132;8.518;2023-02-01T07:56:25;1.70;;;1.30;;
20725;SDS011;10524;48.132;8.518;2023-02-01T07:58:51;1.98;;;1.60;;
20725;SDS011;10524;48.132;8.518;2023-02-01T08:01:23;2.03;;;1.60;;
20725;SDS011;10524;48.132;8.518;2023-02-01T08:03:51;2.33;;;1.48;;
20725;SDS011;10524;48.132;8.518;2023-02-01T08:06:22;2.13;;;1.40;;
20725;SDS011;10524;48.132;8.518;2023-02-01T08:08:49;2.67;;;1.58;;
20725;SDS011;10524;48.132;8.518;2023-02-01T08:11:15;1.85;;;1.55;;
20725;SDS011;10524;48.132;8.518;2023-02-01T08:13:42;2.45;;;1.70;;
20725;SDS011;10524;48.132;8.518;2023-02-01T08:16:09;3.75;;;2.35;;
20725;SDS011;10524;48.132;8.518;2023-02-01T08:18:36;3.33;;;2.42;;
20725;SDS011;10524;48.132;8.518;2023-02-01T08:21:06;3.38;;;2.00;;
20725;SDS011;10524;48.132;8.518;2023-02-01T08:23:40;4.15;;;1.70;;
20725;SDS011;10524;48.132;8.518;2023-02-01T08:28:47;2.63;;;2.25;;
20725;SDS011;10524;48.132;8.518;2023-02-01T08:31:18;3.63;;;2.53;;
20725;SDS011;10524;48.132;8.518;2023-02-01T08:33:48;3.85;;;2.00;;
20725;SDS011;10524;48.132;8.518;2023-02-01T08:36:16;3.33;;;1.60;;
20725;SDS011;10524;48.132;8.518;2023-02-01T08:38:42;4.90;;;2.60;;
20725;SDS011;10524;48.132;8.518;2023-02-01T08:41:08;3.70;;;2.10;;
20725;SDS011;10524;48.132;8.518;2023-02-01T08:43:36;5.32;;;2.35;;
20725;SDS011;10524;48.132;8.518;2023-02-01T08:46:02;3.30;;;1.70;;
20725;SDS011;10524;48.132;8.518;2023-02-01T08:48:29;4.85;;;2.20;;
20725;SDS011;10524;48.132;8.518;2023-02-01T08:50:54;4.95;;;2.70;;
20725;SDS011;10524;48.132;8.518;2023-02-01T08:53:20;4.70;;;2.42;;
20725;SDS011;10524;48.132;8.518;2023-02-01T08:55:46;3.13;;;2.50;;
20725;SDS011;10524;48.132;8.518;2023-02-01T08:58:12;5.78;;;2.53;;
20725;SDS011;10524;48.132;8.518;2023-02-01T09:00:42;4.60;;;1.98;;
20725;SDS011;10524;48.132;8.518;2023-02-01T09:03:13;5.45;;;2.28;;
20725;SDS011;10524;48.132;8.518;2023-02-01T09:05:38;5.38;;;2.30;;
20725;SDS011;10524;48.132;8.518;2023-02-01T09:08:04;6.10;;;2.67;;
20725;SDS011;10524;48.132;8.518;2023-02-01T09:10:30;8.07;;;2.20;;
20725;SDS011;10524;48.132;8.518;2023-02-01T09:12:57;8.68;;;2.70;;
20725;SDS011;10524;48.132;8.518;2023-02-01T09:15:24;5.93;;;2.03;;
20725;SDS011;10524;48.132;8.518;2023-02-01T09:17:51;5.68;;;2.17;;
20725;SDS011;10524;48.132;8.518;2023-02-01T09:20:17;4.65;;;2.03;;
20725;SDS011;10524;48.132;8.518;2023-02-01T09:22:45;5.78;;;2.10;;
20725;SDS011;10524;48.132;8.518;2023-02-01T09:25:10;9.95;;;2.67;;
20725;SDS011;10524;48.132;8.518;2023-02-01T09:27:38;5.60;;;2.00;;
20725;SDS011;10524;48.132;8.518;2023-02-01T09:30:04;6.25;;;2.45;;
20725;SDS011;10524;48.132;8.518;2023-02-01T09:32:30;6.63;;;2.65;;
20725;SDS011;10524;48.132;8.518;2023-02-01T09:34:56;7.00;;;2.72;;
20725;SDS011;10524;48.132;8.518;2023-02-01T09:37:21;7.75;;;3.22;;
20725;SDS011;10524;48.132;8.518;2023-02-01T09:39:47;6.97;;;3.47;;
20725;SDS011;10524;48.132;8.518;2023-02-01T09:45:13;7.63;;;2.65;;
20725;SDS011;10524;48.132;8.518;2023-02-01T09:47:51;6.80;;;2.95;;
20725;SDS011;10524;48.132;8.518;2023-02-01T09:50:33;5.85;;;2.65;;
20725;SDS011;10524;48.132;8.518;2023-02-01T09:53:04;6.00;;;2.65;;
20725;SDS011;10524;48.132;8.518;2023-02-01T09:55:43;8.45;;;2.78;;
20725;SDS011;10524;48.132;8.518;2023-02-01T10:00:57;5.57;;;2.50;;
20725;SDS011;10524;48.132;8.518;2023-02-01T10:03:24;6.80;;;2.45;;
20725;SDS011;10524;48.132;8.518;2023-02-01T10:06:10;6.43;;;2.63;;
20725;SDS011;10524;48.132;8.518;2023-02-01T10:17:03;6.22;;;2.78;;
20725;SDS011;10524;48.132;8.518;2023-02-01T10:19:45;4.45;;;2.45;;
20725;SDS011;10524;48.132;8.518;2023-02-01T10:27:48;2.60;;;2.08;;
20725;SDS011;10524;48.132;8.518;2023-02-01T10:32:55;4.68;;;3.42;;
20725;SDS011;10524;48.132;8.518;2023-02-01T10:35:24;3.33;;;2.20;;
20725;SDS011;10524;48.132;8.518;2023-02-01T10:38:00;4.28;;;2.10;;
20725;SDS011;10524;48.132;8.518;2023-02-01T10:40:27;4.43;;;2.20;;
20725;SDS011;10524;48.132;8.518;2023-02-01T10:43:00;8.70;;;5.88;;
20725;SDS011;10524;48.132;8.518;2023-02-01T10:45:28;5.35;;;4.20;;
20725;SDS011;10524;48.132;8.518;2023-02-01T10:47:56;3.22;;;2.58;;
20725;SDS011;10524;48.132;8.518;2023-02-01T10:50:34;3.78;;;2.65;;
20725;SDS011;10524;48.132;8.518;2023-02-01T10:53:15;4.32;;;1.70;;
20725;SDS011;10524;48.132;8.518;2023-02-01T10:58:17;3.75;;;2.05;;
20725;SDS011;10524;48.132;8.518;2023-02-01T11:00:53;3.47;;;2.17;;
20725;SDS011;10524;48.132;8.518;2023-02-01T11:03:42;2.90;;;1.75;;
20725;SDS011;10524;48.132;8.518;2023-02-01T11:09:00;5.18;;;2.83;;
20725;SDS011;10524;48.132;8.518;2023-02-01T11:16:49;5.18;;;2.58;;
20725;SDS011;10524;48.132;8.518;2023-02-01T11:19:18;4.45;;;2.70;;
20725;SDS011;10524;48.132;8.518;2023-02-01T11:21:44;4.75;;;2.30;;
20725;SDS011;10524;48.132;8.518;2023-02-01T11:24:18;4.32;;;2.60;;
20725;SDS011;10524;48.132;8.518;2023-02-01T11:26:59;4.18;;;2.80;;
20725;SDS011;10524;48.132;8.518;2023-02-01T11:29:28;6.07;;;2.70;;
20725;SDS011;10524;48.132;8.518;2023-02-01T11:32:01;6.63;;;3.05;;
20725;SDS011;10524;48.132;8.518;2023-02-01T11:34:38;4.90;;;2.58;;
20725;SDS011;10524;48.132;8.518;2023-02-01T11:37:27;5.43;;;3.42;;
20725;SDS011;10524;48.132;8.518;2023-02-01T11:40:00;3.90;;;3.00;;
20725;SDS011;10524;48.132;8.518;2023-02-01T11:42:28;3.10;;;2.47;;
20725;SDS011;10524;48.132;8.518;2023-02-01T11:45:15;4.68;;;2.50;;
20725;SDS011;10524;48.132;8.518;2023-02-01T11:47:44;4.50;;;2.90;;
20725;SDS011;10524;48.132;8.518;2023-02-01T12:01:12;4.43;;;3.20;;
20725;SDS011;10524;48.132;8.518;2023-02-01T12:03:56;6.22;;;2.90;;
20725;SDS011;10524;48.132;8.518;2023-02-01T12:12:14;9.38;;;4.78;;
20725;SDS011;10524;48.132;8.518;2023-02-01T12:15:09;10.70;;;4.50;;
20725;SDS011;10524;48.132;8.518;2023-02-01T12:20:51;9.75;;;5.70;;
20725;SDS011;10524;48.132;8.518;2023-02-01T12:23:41;10.00;;;4.72;;
20725;SDS011;10524;48.132;8.518;2023-02-01T12:29:32;8.00;;;5.00;;
20725;SDS011;10524;48.132;8.518;2023-02-01T12:32:19;11.05;;;6.93;;
20725;SDS011;10524;48.132;8.518;2023-02-01T12:40:12;13.52;;;5.00;;
20725;SDS011;10524;48.132;8.518;2023-02-01T12:45:32;9.40;;;3.58;;
20725;SDS011;10524;48.132;8.518;2023-02-01T12:51:05;7.72;;;3.75;;
20725;SDS011;10524;48.132;8.518;2023-02-01T12:56:07;8.25;;;3.40;;
20725;SDS011;10524;48.132;8.518;2023-02-01T12:58:40;7.22;;;3.47;;
20725;SDS011;10524;48.132;8.518;2023-02-01T13:01:13;9.25;;;3.15;;
20725;SDS011;10524;48.132;8.518;2023-02-01T13:06:45;10.15;;;3.85;;
20725;SDS011;10524;48.132;8.518;2023-02-01T13:15:24;10.13;;;3.17;;
20725;SDS011;10524;48.132;8.518;2023-02-01T13:17:54;8.18;;;3.50;;
20725;SDS011;10524;48.132;8.518;2023-02-01T13:20:45;9.98;;;2.70;;
20725;SDS011;10524;48.132;8.518;2023-02-01T13:23:28;10.63;;;2.80;;
20725;SDS011;10524;48.132;8.518;2023-02-01T13:25:56;6.90;;;2.70;;
20725;SDS011;10524;48.132;8.518;2023-02-01T13:28:29;11.02;;;3.22;;
20725;SDS011;10524;48.132;8.518;2023-02-01T13:33:50;8.50;;;3.35;;
20725;SDS011;10524;48.132;8.518;2023-02-01T13:45:25;9.35;;;2.88;;
20725;SDS011;10524;48.132;8.518;2023-02-01T13:47:58;11.05;;;3.45;;
20725;SDS011;10524;48.132;8.518;2023-02-01T13:50:29;8.88;;;3.70;;
20725;SDS011;10524;48.132;8.518;2023-02-01T13:53:00;13.98;;;3.30;;
20725;SDS011;10524;48.132;8.518;2023-02-01T13:55:36;10.35;;;3.17;;
20725;SDS011;10524;48.132;8.518;2023-02-01T14:00:36;9.27;;;3.13;;
20725;SDS011;10524;48.132;8.518;2023-02-01T14:13:34;10.60;;;2.75;;
20725;SDS011;10524;48.132;8.518;2023-02-01T14:23:57;8.80;;;3.00;;
20725;SDS011;10524;48.132;8.518;2023-02-01T14:31:43;8.68;;;2.65;;
20725;SDS011;10524;48.132;8.518;2023-02-01T14:34:17;9.35;;;2.80;;
20725;SDS011;10524;48.132;8.518;2023-02-01T14:36:54;10.85;;;3.20;;
20725;SDS011;10524;48.132;8.518;2023-02-01T14:39:26;12.70;;;4.82;;
20725;SDS011;10524;48.132;8.518;2023-02-01T14:48:39;9.07;;;3.08;;
20725;SDS011;10524;48.132;8.518;2023-02-01T14:50:47;8.20;;;2.80;;
20725;SDS011;10524;48.132;8.518;2023-02-01T14:53:16;10.43;;;2.80;;
20725;SDS011;10524;48.132;8.518;2023-02-01T14:56:15;9.45;;;3.72;;
20725;SDS011;10524;48.132;8.518;2023-02-01T14:59:01;7.38;;;2.83;;
20725;SDS011;10524;48.132;8.518;2023-02-01T15:01:38;8.50;;;2.42;;
20725;SDS011;10524;48.132;8.518;2023-02-01T15:06:47;9.80;;;5.05;;
20725;SDS011;10524;48.132;8.518;2023-02-01T15:12:00;10.60;;;3.53;;
20725;SDS011;10524;48.132;8.518;2023-02-01T15:14:37;9.10;;;3.08;;
20725;SDS011;10524;48.132;8.518;2023-02-01T15:17:25;12.30;;;3.25;;
20725;SDS011;10524;48.132;8.518;2023-02-01T15:20:40;7.05;;;3.03;;
20725;SDS011;10524;48.132;8.518;2023-02-01T15:22:56;7.10;;;2.90;;
20725;SDS011;10524;48.132;8.518;2023-02-01T15:25:29;10.45;;;3.70;;
20725;SDS011;10524;48.132;8.518;2023-02-01T15:27:56;8.52;;;3.15;;
20725;SDS011;10524;48.132;8.518;2023-02-01T15:30:26;8.57;;;2.90;;
20725;SDS011;10524;48.132;8.518;2023-02-01T15:33:04;9.43;;;3.03;;
20725;SDS011;10524;48.132;8.518;2023-02-01T15:46:12;11.93;;;3.08;;
20725;SDS011;10524;48.132;8.518;2023-02-01T15:48:51;9.25;;;3.17;;
20725;SDS011;10524;48.132;8.518;2023-02-01T15:51:19;9.15;;;2.70;;
20725;SDS011;10524;48.132;8.518;2023-02-01T15:53:51;7.13;;;2.92;;
20725;SDS011;10524;48.132;8.518;2023-02-01T15:56:23;8.23;;;3.45;;
20725;SDS011;10524;48.132;8.518;2023-02-01T15:58:53;9.13;;;3.63;;
20725;SDS011;10524;48.132;8.518;2023-02-01T16:01:22;11.13;;;3.90;;
20725;SDS011;10524;48.132;8.518;2023-02-01T16:03:48;13.85;;;3.40;;
20725;SDS011;10524;48.132;8.518;2023-02-01T16:08:50;10.65;;;3.45;;
20725;SDS011;10524;48.132;8.518;2023-02-01T16:11:26;10.48;;;3.08;;
20725;SDS011;10524;48.132;8.518;2023-02-01T16:13:55;12.65;;;3.10;;
20725;SDS011;10524;48.132;8.518;2023-02-01T16:16:25;13.13;;;3.40;;
20725;SDS011;10524;48.132;8.518;2023-02-01T16:18:52;54.92;;;24.48;;
20725;SDS011;10524;48.132;8.518;2023-02-01T16:21:18;14.55;;;4.82;;
20725;SDS011;10524;48.132;8.518;2023-02-01T16:23:47;12.82;;;5.78;;
20725;SDS011;10524;48.132;8.518;2023-02-01T16:26:14;11.15;;;3.78;;
20725;SDS011;10524;48.132;8.518;2023-02-01T16:28:40;10.02;;;4.13;;
20725;SDS011;10524;48.132;8.518;2023-02-01T16:31:05;21.98;;;10.15;;
20725;SDS011;10524;48.132;8.518;2023-02-01T16:33:44;16.75;;;7.50;;
20725;SDS011;10524;48.132;8.518;2023-02-01T16:36:13;15.45;;;5.93;;
20725;SDS011;10524;48.132;8.518;2023-02-01T16:38:42;11.15;;;4.07;;
20725;SDS011;10524;48.132;8.518;2023-02-01T16:41:12;11.57;;;3.75;;
20725;SDS011;10524;48.132;8.518;2023-02-01T16:43:39;8.88;;;3.33;;
20725;SDS011;10524;48.132;8.518;2023-02-01T16:46:05;10.10;;;4.53;;
20725;SDS011;10524;48.132;8.518;2023-02-01T16:48:34;9.57;;;4.25;;
20725;SDS011;10524;48.132;8.518;2023-02-01T16:51:02;10.73;;;3.80;;
20725;SDS011;10524;48.132;8.518;2023-02-01T16:53:32;11.67;;;3.87;;
20725;SDS011;10524;48.132;8.518;2023-02-01T16:55:58;14.60;;;4.20;;
20725;SDS011;10524;48.132;8.518;2023-02-01T16:58:24;13.23;;;4.82;;
20725;SDS011;10524;48.132;8.518;2023-02-01T17:00:51;5.88;;;3.47;;
20725;SDS011;10524;48.132;8.518;2023-02-01T17:03:17;9.45;;;4.28;;
20725;SDS011;10524;48.132;8.518;2023-02-01T17:05:47;24.27;;;9.10;;
20725;SDS011;10524;48.132;8.518;2023-02-01T17:08:17;17.33;;;8.38;;
20725;SDS011;10524;48.132;8.518;2023-02-01T17:10:57;30.05;;;13.70;;
20725;SDS011;10524;48.132;8.518;2023-02-01T17:13:23;10.77;;;5.03;;
20725;SDS011;10524;48.132;8.518;2023-02-01T17:15:50;12.75;;;4.57;;
20725;SDS011;10524;48.132;8.518;2023-02-01T17:18:36;8.20;;;3.35;;
20725;SDS011;10524;48.132;8.518;2023-02-01T17:21:02;12.40;;;3.40;;
20725;SDS011;10524;48.132;8.518;2023-02-01T17:23:29;13.73;;;4.10;;
20725;SDS011;10524;48.132;8.518;2023-02-01T17:25:55;8.38;;;3.50;;
20725;SDS011;10524;48.132;8.518;2023-02-01T17:28:21;7.45;;;3.90;;
20725;SDS011;10524;48.132;8.518;2023-02-01T17:30:47;12.85;;;4.28;;
20725;SDS011;10524;48.132;8.518;2023-02-01T17:33:29;12.80;;;4.85;;
20725;SDS011;10524;48.132;8.518;2023-02-01T17:36:01;7.90;;;2.80;;
20725;SDS011;10524;48.132;8.518;2023-02-01T17:38:30;10.10;;;3.08;;
20725;SDS011;10524;48.132;8.518;2023-02-01T17:40:55;8.70;;;3.38;;
20725;SDS011;10524;48.132;8.518;2023-02-01T17:43:22;11.65;;;3.67;;
20725;SDS011;10524;48.132;8.518;2023-02-01T17:45:49;9.05;;;3.28;;
20725;SDS011;10524;48.132;8.518;2023-02-01T17:48:21;11.18;;;3.47;;
20725;SDS011;10524;48.132;8.518;2023-02-01T17:50:48;6.43;;;2.80;;
20725;SDS011;10524;48.132;8.518;2023-02-01T17:53:18;9.35;;;3.08;;
20725;SDS011;10524;48.132;8.518;2023-02-01T17:55:48;7.72;;;2.70;;
20725;SDS011;10524;48.132;8.518;2023-02-01T17:58:15;11.80;;;3.22;;
20725;SDS011;10524;48.132;8.518;2023-02-01T18:00:42;11.23;;;3.30;;
20725;SDS011;10524;48.132;8.518;2023-02-01T18:03:22;8.93;;;2.97;;